Alpaugh, CA

3:15 AM PST on February 22, 2017 (GMT -0800)
MAU642 | | Change Station
Active Advisory: Small Craft Advisory

Elev 213 ft 35.86 °N, 119.39 °W | Updated 1 minute ago

Partly Cloudy
Partly Cloudy
48.0 °F
Feels Like 48 °F
N
3.0
Wind Variable Wind from WSW

Today
High -- | Low -- °F
--% Chance of Precip.
Yesterday
High -- | Low -- °F
Precip. -- in
Pressure 30.25 in
Visibility 10.0 miles
Clouds Clear
Windchill 48 °F
Dew Point 45 °F
Humidity 89%
Rainfall 0.00 in
Snow Depth Not available.
6:36 AM 5:46 PM
Waning Crescent, 18% visible
METAR KPTV 221056Z AUTO 24003KT 10SM CLR 10/09 A3020 RMK AO2 SLP241 T01000089
Pressure 30.25 in
Visibility 10.0 miles
Clouds Clear
Windchill 48 °F
Dew Point 45 °F
Humidity 89%
Rainfall 0.00 in
Snow Depth Not available.
6:36 AM 5:46 PM
Waning Crescent, 18% visible
METAR KPTV 221056Z AUTO 24003KT 10SM CLR 10/09 A3020 RMK AO2 SLP241 T01000089

Get Your Daily Forecast Email!

Thanks for signing up!

Be on the lookout for a verification email in your inbox.

You'll start receiving the daily forecast at 8 AM.

×

10-Day Weather Forecast

Almanac

Astronomy

Feb. 22, 2017 Rise Set
Actual Time
Civil Twilight
Nautical Twilight
Astronomical Twilight
Moon
Length of Visible Light
Length of Day
Tomorrow will be .
, % of the Moon is Illuminated

Today's Extremes

State Highs State Lows

Community

WunderPhotos

Upload Photos

1,962,540 photos uploaded!

WunderBlog® & News

Nearby

Air Quality

  Air Quality AQ Index Pollutant
Not available.

Snow Depth

Station Depth Elevation

Earthquake Activity

City Distance Mag. Time & Date
Minimum magnitude displayed is 2.5.

Coastal Water Temperatures

Place Temperature

Stations

Nearby Weather Stations

Station Location Temp. Windchill Dew Point Humidity Wind Precip. Elev Updated Type
                   

Watches & Warnings

Small Craft Advisory
Issued: 2:08 AM PST Feb. 22, 2017 – National Weather Service

... Small Craft Advisory in effect until 3 PM PST Thursday...

The National Weather Service in Los Angeles/Oxnard has issued a
Small Craft Advisory... which is in effect until 3 PM PST Thursday.

See the coastal waters forecast (cwflox) for more details.

Precautionary/preparedness actions...

A Small Craft Advisory means that hazardous sea conditions will
exist for small craft. Inexperienced mariners... especially those
operating smaller vessels should avoid navigating in these
conditions.